sensor_id;sensor_type;location;lat;lon;timestamp;temperature;humidity
8820;DHT22;4446;50.876;4.736;2024-01-06T00:01:14;7.00;99.90
8820;DHT22;4446;50.876;4.736;2024-01-06T00:03:42;7.00;99.90
8820;DHT22;4446;50.876;4.736;2024-01-06T00:06:11;7.00;99.90
8820;DHT22;4446;50.876;4.736;2024-01-06T00:08:38;7.10;99.90
8820;DHT22;4446;50.876;4.736;2024-01-06T00:11:05;7.00;99.90
8820;DHT22;4446;50.876;4.736;2024-01-06T00:13:32;7.10;99.90
8820;DHT22;4446;50.876;4.736;2024-01-06T00:16:00;7.00;99.90
8820;DHT22;4446;50.876;4.736;2024-01-06T00:18:29;7.00;99.90
8820;DHT22;4446;50.876;4.736;2024-01-06T00:20:56;7.00;99.90
8820;DHT22;4446;50.876;4.736;2024-01-06T00:23:23;7.00;99.90
8820;DHT22;4446;50.876;4.736;2024-01-06T00:25:50;7.00;99.90
8820;DHT22;4446;50.876;4.736;2024-01-06T00:28:17;6.90;99.90
8820;DHT22;4446;50.876;4.736;2024-01-06T00:30:44;6.90;99.90
8820;DHT22;4446;50.876;4.736;2024-01-06T00:33:11;6.90;99.90
8820;DHT22;4446;50.876;4.736;2024-01-06T00:35:40;6.90;99.90
8820;DHT22;4446;50.876;4.736;2024-01-06T00:38:07;6.90;99.90
8820;DHT22;4446;50.876;4.736;2024-01-06T00:40:34;6.90;99.90
8820;DHT22;4446;50.876;4.736;2024-01-06T00:43:00;6.90;99.90
8820;DHT22;4446;50.876;4.736;2024-01-06T00:45:27;6.90;99.90
8820;DHT22;4446;50.876;4.736;2024-01-06T00:47:56;6.90;99.90
8820;DHT22;4446;50.876;4.736;2024-01-06T00:50:23;6.90;99.90
8820;DHT22;4446;50.876;4.736;2024-01-06T00:52:51;6.90;99.90
8820;DHT22;4446;50.876;4.736;2024-01-06T00:55:19;6.90;99.90
8820;DHT22;4446;50.876;4.736;2024-01-06T00:57:46;6.90;99.90
8820;DHT22;4446;50.876;4.736;2024-01-06T01:00:13;6.90;99.90
8820;DHT22;4446;50.876;4.736;2024-01-06T01:02:40;6.90;99.90
8820;DHT22;4446;50.876;4.736;2024-01-06T01:05:08;6.90;99.90
8820;DHT22;4446;50.876;4.736;2024-01-06T01:07:35;6.90;99.90
8820;DHT22;4446;50.876;4.736;2024-01-06T01:10:04;6.90;99.90
8820;DHT22;4446;50.876;4.736;2024-01-06T01:12:31;6.80;99.90
8820;DHT22;4446;50.876;4.736;2024-01-06T01:14:58;6.80;99.90
8820;DHT22;4446;50.876;4.736;2024-01-06T01:17:25;6.90;99.90
8820;DHT22;4446;50.876;4.736;2024-01-06T01:19:52;6.90;99.90
8820;DHT22;4446;50.876;4.736;2024-01-06T01:22:19;6.90;99.90
8820;DHT22;4446;50.876;4.736;2024-01-06T01:24:46;6.80;99.90
8820;DHT22;4446;50.876;4.736;2024-01-06T01:27:15;6.80;99.90
8820;DHT22;4446;50.876;4.736;2024-01-06T01:29:42;6.80;99.90
8820;DHT22;4446;50.876;4.736;2024-01-06T01:32:09;6.80;99.90
8820;DHT22;4446;50.876;4.736;2024-01-06T01:34:35;6.80;99.90
8820;DHT22;4446;50.876;4.736;2024-01-06T01:37:03;6.80;99.90
8820;DHT22;4446;50.876;4.736;2024-01-06T01:39:30;6.80;99.90
8820;DHT22;4446;50.876;4.736;2024-01-06T01:41:57;6.70;99.90
8820;DHT22;4446;50.876;4.736;2024-01-06T01:44:25;6.70;99.90
8820;DHT22;4446;50.876;4.736;2024-01-06T01:46:52;6.70;99.90
8820;DHT22;4446;50.876;4.736;2024-01-06T01:49:19;6.70;99.90
8820;DHT22;4446;50.876;4.736;2024-01-06T01:51:46;6.70;99.90
8820;DHT22;4446;50.876;4.736;2024-01-06T01:54:14;6.70;99.90
8820;DHT22;4446;50.876;4.736;2024-01-06T01:56:42;6.70;99.90
8820;DHT22;4446;50.876;4.736;2024-01-06T01:59:11;6.80;99.90
8820;DHT22;4446;50.876;4.736;2024-01-06T02:01:40;6.70;99.90
8820;DHT22;4446;50.876;4.736;2024-01-06T02:04:08;6.70;99.90
8820;DHT22;4446;50.876;4.736;2024-01-06T02:06:35;6.70;99.90
8820;DHT22;4446;50.876;4.736;2024-01-06T02:09:02;6.70;99.90
8820;DHT22;4446;50.876;4.736;2024-01-06T02:11:29;6.70;99.90
8820;DHT22;4446;50.876;4.736;2024-01-06T02:13:56;6.70;99.90
8820;DHT22;4446;50.876;4.736;2024-01-06T02:16:23;6.70;99.90
8820;DHT22;4446;50.876;4.736;2024-01-06T02:18:51;6.70;99.90
8820;DHT22;4446;50.876;4.736;2024-01-06T02:21:20;6.70;99.90
8820;DHT22;4446;50.876;4.736;2024-01-06T02:23:49;6.70;99.90
8820;DHT22;4446;50.876;4.736;2024-01-06T02:26:16;6.70;99.90
8820;DHT22;4446;50.876;4.736;2024-01-06T02:28:43;6.70;99.90
8820;DHT22;4446;50.876;4.736;2024-01-06T02:31:13;6.70;99.90
8820;DHT22;4446;50.876;4.736;2024-01-06T02:33:40;6.70;99.90
8820;DHT22;4446;50.876;4.736;2024-01-06T02:36:08;6.80;99.90
8820;DHT22;4446;50.876;4.736;2024-01-06T02:38:35;6.80;99.90
8820;DHT22;4446;50.876;4.736;2024-01-06T02:41:03;6.80;99.90
8820;DHT22;4446;50.876;4.736;2024-01-06T02:43:30;6.80;99.90
8820;DHT22;4446;50.876;4.736;2024-01-06T02:45:57;6.80;99.90
8820;DHT22;4446;50.876;4.736;2024-01-06T02:48:24;6.80;99.90
8820;DHT22;4446;50.876;4.736;2024-01-06T02:50:51;6.80;99.90
8820;DHT22;4446;50.876;4.736;2024-01-06T02:53:18;6.80;99.90
8820;DHT22;4446;50.876;4.736;2024-01-06T02:55:45;6.90;99.90
8820;DHT22;4446;50.876;4.736;2024-01-06T02:58:13;6.90;99.90
8820;DHT22;4446;50.876;4.736;2024-01-06T03:00:40;7.00;99.90
8820;DHT22;4446;50.876;4.736;2024-01-06T03:03:07;6.90;99.90
8820;DHT22;4446;50.876;4.736;2024-01-06T03:05:34;6.90;99.90
8820;DHT22;4446;50.876;4.736;2024-01-06T03:08:03;6.90;99.90
8820;DHT22;4446;50.876;4.736;2024-01-06T03:10:29;6.90;99.90
8820;DHT22;4446;50.876;4.736;2024-01-06T03:12:56;6.90;99.90
8820;DHT22;4446;50.876;4.736;2024-01-06T03:15:24;6.90;99.90
8820;DHT22;4446;50.876;4.736;2024-01-06T03:17:52;6.90;99.90
8820;DHT22;4446;50.876;4.736;2024-01-06T03:20:19;6.90;99.90
8820;DHT22;4446;50.876;4.736;2024-01-06T03:22:46;6.80;99.90
8820;DHT22;4446;50.876;4.736;2024-01-06T03:25:13;6.80;99.90
8820;DHT22;4446;50.876;4.736;2024-01-06T03:27:40;6.90;99.90
8820;DHT22;4446;50.876;4.736;2024-01-06T03:30:08;6.90;99.90
8820;DHT22;4446;50.876;4.736;2024-01-06T03:32:37;7.00;99.90
8820;DHT22;4446;50.876;4.736;2024-01-06T03:35:05;7.00;99.90
8820;DHT22;4446;50.876;4.736;2024-01-06T03:37:32;6.90;99.90
8820;DHT22;4446;50.876;4.736;2024-01-06T03:39:59;6.90;99.90
8820;DHT22;4446;50.876;4.736;2024-01-06T03:42:27;6.80;99.90
8820;DHT22;4446;50.876;4.736;2024-01-06T03:44:54;6.80;99.90
8820;DHT22;4446;50.876;4.736;2024-01-06T03:47:21;6.70;99.90
8820;DHT22;4446;50.876;4.736;2024-01-06T03:49:49;6.70;99.90
8820;DHT22;4446;50.876;4.736;2024-01-06T03:52:16;6.80;99.90
8820;DHT22;4446;50.876;4.736;2024-01-06T03:54:43;6.70;99.90
8820;DHT22;4446;50.876;4.736;2024-01-06T03:57:10;6.70;99.90
8820;DHT22;4446;50.876;4.736;2024-01-06T03:59:37;6.60;99.90
8820;DHT22;4446;50.876;4.736;2024-01-06T04:02:04;6.60;99.90
8820;DHT22;4446;50.876;4.736;2024-01-06T04:04:31;6.60;99.90
8820;DHT22;4446;50.876;4.736;2024-01-06T04:06:59;6.60;99.90
8820;DHT22;4446;50.876;4.736;2024-01-06T04:09:27;6.60;99.90
8820;DHT22;4446;50.876;4.736;2024-01-06T04:11:54;6.60;99.90
8820;DHT22;4446;50.876;4.736;2024-01-06T04:14:21;6.50;99.90
8820;DHT22;4446;50.876;4.736;2024-01-06T04:16:48;6.60;99.90
8820;DHT22;4446;50.876;4.736;2024-01-06T04:19:15;6.60;99.90
8820;DHT22;4446;50.876;4.736;2024-01-06T04:21:42;6.50;99.90
8820;DHT22;4446;50.876;4.736;2024-01-06T04:24:10;6.50;99.90
8820;DHT22;4446;50.876;4.736;2024-01-06T04:26:37;6.50;99.90
8820;DHT22;4446;50.876;4.736;2024-01-06T04:29:04;6.40;99.90
8820;DHT22;4446;50.876;4.736;2024-01-06T04:31:31;6.40;99.90
8820;DHT22;4446;50.876;4.736;2024-01-06T04:33:58;6.40;99.90
8820;DHT22;4446;50.876;4.736;2024-01-06T04:36:25;6.30;99.90
8820;DHT22;4446;50.876;4.736;2024-01-06T04:38:52;6.20;99.90
8820;DHT22;4446;50.876;4.736;2024-01-06T04:41:21;6.30;99.90
8820;DHT22;4446;50.876;4.736;2024-01-06T04:43:48;6.30;99.90
8820;DHT22;4446;50.876;4.736;2024-01-06T04:46:15;6.30;99.90
8820;DHT22;4446;50.876;4.736;2024-01-06T04:48:42;6.30;99.90
8820;DHT22;4446;50.876;4.736;2024-01-06T04:51:10;6.20;99.90
8820;DHT22;4446;50.876;4.736;2024-01-06T04:53:37;6.10;99.90
8820;DHT22;4446;50.876;4.736;2024-01-06T04:56:04;6.10;99.90
8820;DHT22;4446;50.876;4.736;2024-01-06T04:58:33;6.00;99.90
8820;DHT22;4446;50.876;4.736;2024-01-06T05:01:00;6.00;99.90
8820;DHT22;4446;50.876;4.736;2024-01-06T05:03:27;5.90;99.90
8820;DHT22;4446;50.876;4.736;2024-01-06T05:05:54;5.90;99.90
8820;DHT22;4446;50.876;4.736;2024-01-06T05:08:21;5.90;99.90
8820;DHT22;4446;50.876;4.736;2024-01-06T05:10:52;5.90;99.90
8820;DHT22;4446;50.876;4.736;2024-01-06T05:13:20;5.80;99.90
8820;DHT22;4446;50.876;4.736;2024-01-06T05:15:48;5.90;99.90
8820;DHT22;4446;50.876;4.736;2024-01-06T05:18:15;5.80;99.90
8820;DHT22;4446;50.876;4.736;2024-01-06T05:20:42;5.80;99.90
8820;DHT22;4446;50.876;4.736;2024-01-06T05:23:09;5.90;99.90
8820;DHT22;4446;50.876;4.736;2024-01-06T05:25:36;5.90;99.90
8820;DHT22;4446;50.876;4.736;2024-01-06T05:28:04;5.80;99.90
8820;DHT22;4446;50.876;4.736;2024-01-06T05:30:31;5.80;99.90
8820;DHT22;4446;50.876;4.736;2024-01-06T05:32:59;5.80;99.90
8820;DHT22;4446;50.876;4.736;2024-01-06T05:35:26;5.80;99.90
8820;DHT22;4446;50.876;4.736;2024-01-06T05:37:53;5.80;99.90
8820;DHT22;4446;50.876;4.736;2024-01-06T05:40:20;5.80;99.90
8820;DHT22;4446;50.876;4.736;2024-01-06T05:42:47;5.80;99.90
8820;DHT22;4446;50.876;4.736;2024-01-06T05:45:14;5.70;99.90
8820;DHT22;4446;50.876;4.736;2024-01-06T05:47:41;5.70;99.90
8820;DHT22;4446;50.876;4.736;2024-01-06T05:50:10;5.70;99.90
8820;DHT22;4446;50.876;4.736;2024-01-06T05:52:37;5.70;99.90
8820;DHT22;4446;50.876;4.736;2024-01-06T05:55:05;5.70;99.90
8820;DHT22;4446;50.876;4.736;2024-01-06T05:57:32;5.70;99.90
8820;DHT22;4446;50.876;4.736;2024-01-06T05:59:59;5.70;99.90
8820;DHT22;4446;50.876;4.736;2024-01-06T06:02:26;5.70;99.90
8820;DHT22;4446;50.876;4.736;2024-01-06T06:04:53;5.70;99.90
8820;DHT22;4446;50.876;4.736;2024-01-06T06:07:22;5.70;99.90
8820;DHT22;4446;50.876;4.736;2024-01-06T06:09:49;5.70;99.90
8820;DHT22;4446;50.876;4.736;2024-01-06T06:12:16;5.60;99.90
8820;DHT22;4446;50.876;4.736;2024-01-06T06:14:42;5.60;99.90
8820;DHT22;4446;50.876;4.736;2024-01-06T06:17:09;5.50;99.90
8820;DHT22;4446;50.876;4.736;2024-01-06T06:19:36;5.50;99.90
8820;DHT22;4446;50.876;4.736;2024-01-06T06:22:04;5.50;99.90
8820;DHT22;4446;50.876;4.736;2024-01-06T06:24:32;5.50;99.90
8820;DHT22;4446;50.876;4.736;2024-01-06T06:26:59;5.50;99.90
8820;DHT22;4446;50.876;4.736;2024-01-06T06:29:26;5.40;99.90
8820;DHT22;4446;50.876;4.736;2024-01-06T06:31:54;5.40;99.90
8820;DHT22;4446;50.876;4.736;2024-01-06T06:34:21;5.40;99.90
8820;DHT22;4446;50.876;4.736;2024-01-06T06:36:48;5.40;99.90
8820;DHT22;4446;50.876;4.736;2024-01-06T06:39:14;5.30;99.90
8820;DHT22;4446;50.876;4.736;2024-01-06T06:41:45;5.30;99.90
8820;DHT22;4446;50.876;4.736;2024-01-06T06:44:12;5.30;99.90
8820;DHT22;4446;50.876;4.736;2024-01-06T06:46:39;5.20;99.90
8820;DHT22;4446;50.876;4.736;2024-01-06T06:49:06;5.10;99.90
8820;DHT22;4446;50.876;4.736;2024-01-06T06:51:33;5.00;99.90
8820;DHT22;4446;50.876;4.736;2024-01-06T06:54:00;5.00;99.90
8820;DHT22;4446;50.876;4.736;2024-01-06T06:56:27;5.00;99.90
8820;DHT22;4446;50.876;4.736;2024-01-06T06:58:56;5.00;99.90
8820;DHT22;4446;50.876;4.736;2024-01-06T07:01:23;5.00;99.90
8820;DHT22;4446;50.876;4.736;2024-01-06T07:03:49;5.00;99.90
8820;DHT22;4446;50.876;4.736;2024-01-06T07:06:17;4.90;99.90
8820;DHT22;4446;50.876;4.736;2024-01-06T07:08:44;4.90;99.90
8820;DHT22;4446;50.876;4.736;2024-01-06T07:11:11;4.90;99.90
8820;DHT22;4446;50.876;4.736;2024-01-06T07:13:40;4.90;99.90
8820;DHT22;4446;50.876;4.736;2024-01-06T07:16:08;4.90;99.90
8820;DHT22;4446;50.876;4.736;2024-01-06T07:18:37;4.90;99.90
8820;DHT22;4446;50.876;4.736;2024-01-06T07:21:04;4.90;99.90
8820;DHT22;4446;50.876;4.736;2024-01-06T07:23:32;4.90;99.90
8820;DHT22;4446;50.876;4.736;2024-01-06T07:25:59;4.90;99.90
8820;DHT22;4446;50.876;4.736;2024-01-06T07:28:26;4.90;99.90
8820;DHT22;4446;50.876;4.736;2024-01-06T07:30:53;5.00;99.90
8820;DHT22;4446;50.876;4.736;2024-01-06T07:33:22;5.00;99.90
8820;DHT22;4446;50.876;4.736;2024-01-06T07:35:50;4.90;99.90
8820;DHT22;4446;50.876;4.736;2024-01-06T07:38:17;4.90;99.90
8820;DHT22;4446;50.876;4.736;2024-01-06T07:40:45;4.90;99.90
8820;DHT22;4446;50.876;4.736;2024-01-06T07:43:12;5.00;99.90
8820;DHT22;4446;50.876;4.736;2024-01-06T07:45:40;4.90;99.90
8820;DHT22;4446;50.876;4.736;2024-01-06T07:48:08;4.90;99.90
8820;DHT22;4446;50.876;4.736;2024-01-06T07:50:36;4.80;99.90
8820;DHT22;4446;50.876;4.736;2024-01-06T07:53:03;4.90;99.90
8820;DHT22;4446;50.876;4.736;2024-01-06T07:55:30;4.90;99.90
8820;DHT22;4446;50.876;4.736;2024-01-06T07:57:57;4.90;99.90
8820;DHT22;4446;50.876;4.736;2024-01-06T08:00:24;4.90;99.90
8820;DHT22;4446;50.876;4.736;2024-01-06T08:02:52;4.80;99.90
8820;DHT22;4446;50.876;4.736;2024-01-06T08:05:18;4.80;99.90
8820;DHT22;4446;50.876;4.736;2024-01-06T08:07:47;5.00;99.90
8820;DHT22;4446;50.876;4.736;2024-01-06T08:10:15;5.00;99.90
8820;DHT22;4446;50.876;4.736;2024-01-06T08:12:42;4.90;99.90
8820;DHT22;4446;50.876;4.736;2024-01-06T08:15:09;5.00;99.90
8820;DHT22;4446;50.876;4.736;2024-01-06T08:17:36;5.00;99.90
8820;DHT22;4446;50.876;4.736;2024-01-06T08:20:07;5.00;99.90
8820;DHT22;4446;50.876;4.736;2024-01-06T08:22:34;5.00;99.90
8820;DHT22;4446;50.876;4.736;2024-01-06T08:25:02;5.00;99.90
8820;DHT22;4446;50.876;4.736;2024-01-06T08:27:31;5.00;99.90
8820;DHT22;4446;50.876;4.736;2024-01-06T08:29:58;5.00;99.90
8820;DHT22;4446;50.876;4.736;2024-01-06T08:32:25;5.00;99.90
8820;DHT22;4446;50.876;4.736;2024-01-06T08:34:52;5.00;99.90
8820;DHT22;4446;50.876;4.736;2024-01-06T08:37:19;5.00;99.90
8820;DHT22;4446;50.876;4.736;2024-01-06T08:39:46;5.10;99.90
8820;DHT22;4446;50.876;4.736;2024-01-06T08:42:15;5.10;99.90
8820;DHT22;4446;50.876;4.736;2024-01-06T08:44:42;5.10;99.90
8820;DHT22;4446;50.876;4.736;2024-01-06T08:47:10;5.10;99.90
8820;DHT22;4446;50.876;4.736;2024-01-06T08:49:37;5.20;99.90
8820;DHT22;4446;50.876;4.736;2024-01-06T08:52:06;5.10;99.90
8820;DHT22;4446;50.876;4.736;2024-01-06T08:54:33;5.20;99.90
8820;DHT22;4446;50.876;4.736;2024-01-06T08:57:00;5.10;99.90
8820;DHT22;4446;50.876;4.736;2024-01-06T08:59:28;5.10;99.90
8820;DHT22;4446;50.876;4.736;2024-01-06T09:01:56;5.10;99.90
8820;DHT22;4446;50.876;4.736;2024-01-06T09:04:23;5.10;99.90
8820;DHT22;4446;50.876;4.736;2024-01-06T09:06:50;5.10;99.90
8820;DHT22;4446;50.876;4.736;2024-01-06T09:09:17;5.10;99.90
8820;DHT22;4446;50.876;4.736;2024-01-06T09:11:44;5.00;99.90
8820;DHT22;4446;50.876;4.736;2024-01-06T09:14:12;5.00;99.90
8820;DHT22;4446;50.876;4.736;2024-01-06T09:16:40;5.00;99.90
8820;DHT22;4446;50.876;4.736;2024-01-06T09:19:07;5.00;99.90
8820;DHT22;4446;50.876;4.736;2024-01-06T09:21:34;5.00;99.90
8820;DHT22;4446;50.876;4.736;2024-01-06T09:24:02;5.00;99.90
8820;DHT22;4446;50.876;4.736;2024-01-06T09:26:32;5.00;99.90
8820;DHT22;4446;50.876;4.736;2024-01-06T09:28:59;5.00;99.90
8820;DHT22;4446;50.876;4.736;2024-01-06T09:31:26;5.10;99.90
8820;DHT22;4446;50.876;4.736;2024-01-06T09:33:55;5.10;99.90
8820;DHT22;4446;50.876;4.736;2024-01-06T09:36:22;5.10;99.90
8820;DHT22;4446;50.876;4.736;2024-01-06T09:38:49;5.10;99.90
8820;DHT22;4446;50.876;4.736;2024-01-06T09:41:16;5.20;99.90
8820;DHT22;4446;50.876;4.736;2024-01-06T09:43:43;5.20;99.90
8820;DHT22;4446;50.876;4.736;2024-01-06T09:46:16;5.20;99.90
8820;DHT22;4446;50.876;4.736;2024-01-06T09:48:45;5.30;99.90
8820;DHT22;4446;50.876;4.736;2024-01-06T09:51:15;5.30;99.90
8820;DHT22;4446;50.876;4.736;2024-01-06T09:53:47;5.40;99.90
8820;DHT22;4446;50.876;4.736;2024-01-06T09:56:15;5.40;99.90
8820;DHT22;4446;50.876;4.736;2024-01-06T09:58:44;5.20;99.90
8820;DHT22;4446;50.876;4.736;2024-01-06T10:01:11;5.10;99.90
8820;DHT22;4446;50.876;4.736;2024-01-06T10:03:40;5.10;99.90
8820;DHT22;4446;50.876;4.736;2024-01-06T10:06:07;5.00;99.90
8820;DHT22;4446;50.876;4.736;2024-01-06T10:08:36;4.90;99.90
8820;DHT22;4446;50.876;4.736;2024-01-06T10:11:06;4.80;99.90
8820;DHT22;4446;50.876;4.736;2024-01-06T10:13:33;4.70;99.90
8820;DHT22;4446;50.876;4.736;2024-01-06T10:16:00;4.70;99.90
8820;DHT22;4446;50.876;4.736;2024-01-06T10:18:27;4.80;99.90
8820;DHT22;4446;50.876;4.736;2024-01-06T10:20:55;4.80;99.90
8820;DHT22;4446;50.876;4.736;2024-01-06T10:23:22;4.80;99.90
8820;DHT22;4446;50.876;4.736;2024-01-06T10:25:53;4.80;99.90
8820;DHT22;4446;50.876;4.736;2024-01-06T10:28:21;4.70;99.90
8820;DHT22;4446;50.876;4.736;2024-01-06T10:30:51;4.70;99.90
8820;DHT22;4446;50.876;4.736;2024-01-06T10:33:19;4.70;99.90
8820;DHT22;4446;50.876;4.736;2024-01-06T10:35:46;4.70;99.90
8820;DHT22;4446;50.876;4.736;2024-01-06T10:38:14;4.70;99.90
8820;DHT22;4446;50.876;4.736;2024-01-06T10:40:57;4.70;99.90
8820;DHT22;4446;50.876;4.736;2024-01-06T10:43:26;4.70;99.90
8820;DHT22;4446;50.876;4.736;2024-01-06T10:45:53;4.80;99.90
8820;DHT22;4446;50.876;4.736;2024-01-06T10:48:25;4.70;99.90
8820;DHT22;4446;50.876;4.736;2024-01-06T10:50:53;4.80;99.90
8820;DHT22;4446;50.876;4.736;2024-01-06T10:53:21;4.80;99.90
8820;DHT22;4446;50.876;4.736;2024-01-06T10:55:49;4.80;99.90
8820;DHT22;4446;50.876;4.736;2024-01-06T10:58:19;4.80;99.90
8820;DHT22;4446;50.876;4.736;2024-01-06T11:00:47;4.80;99.90
8820;DHT22;4446;50.876;4.736;2024-01-06T11:03:14;4.70;99.90
8820;DHT22;4446;50.876;4.736;2024-01-06T11:05:42;4.80;99.90
8820;DHT22;4446;50.876;4.736;2024-01-06T11:08:10;4.70;99.90
8820;DHT22;4446;50.876;4.736;2024-01-06T11:10:40;4.70;99.90
8820;DHT22;4446;50.876;4.736;2024-01-06T11:13:11;4.70;99.90
8820;DHT22;4446;50.876;4.736;2024-01-06T11:15:43;4.70;99.90
8820;DHT22;4446;50.876;4.736;2024-01-06T11:18:30;4.70;99.90
8820;DHT22;4446;50.876;4.736;2024-01-06T11:21:18;4.60;99.90
8820;DHT22;4446;50.876;4.736;2024-01-06T11:24:13;4.60;99.90
8820;DHT22;4446;50.876;4.736;2024-01-06T11:26:43;4.60;99.90
8820;DHT22;4446;50.876;4.736;2024-01-06T11:29:11;4.60;99.90
8820;DHT22;4446;50.876;4.736;2024-01-06T11:31:40;4.80;99.90
8820;DHT22;4446;50.876;4.736;2024-01-06T11:34:12;4.80;99.90
8820;DHT22;4446;50.876;4.736;2024-01-06T11:36:43;4.70;99.90
8820;DHT22;4446;50.876;4.736;2024-01-06T11:39:34;4.80;99.90
8820;DHT22;4446;50.876;4.736;2024-01-06T11:42:02;4.80;99.90
8820;DHT22;4446;50.876;4.736;2024-01-06T11:44:29;4.70;99.90
8820;DHT22;4446;50.876;4.736;2024-01-06T11:47:02;4.80;99.90
8820;DHT22;4446;50.876;4.736;2024-01-06T11:49:30;4.70;99.90
8820;DHT22;4446;50.876;4.736;2024-01-06T11:51:58;4.80;99.90
8820;DHT22;4446;50.876;4.736;2024-01-06T11:54:25;4.70;99.90
8820;DHT22;4446;50.876;4.736;2024-01-06T11:56:52;4.60;99.90
8820;DHT22;4446;50.876;4.736;2024-01-06T11:59:21;4.50;99.90
8820;DHT22;4446;50.876;4.736;2024-01-06T12:01:48;4.60;99.90
8820;DHT22;4446;50.876;4.736;2024-01-06T12:04:18;4.60;99.90
8820;DHT22;4446;50.876;4.736;2024-01-06T12:06:47;4.60;99.90
8820;DHT22;4446;50.876;4.736;2024-01-06T12:09:17;4.60;99.90
8820;DHT22;4446;50.876;4.736;2024-01-06T12:11:44;4.70;99.90
8820;DHT22;4446;50.876;4.736;2024-01-06T12:14:12;4.60;99.90
8820;DHT22;4446;50.876;4.736;2024-01-06T12:16:42;4.60;99.90
8820;DHT22;4446;50.876;4.736;2024-01-06T12:19:10;4.60;99.90
8820;DHT22;4446;50.876;4.736;2024-01-06T12:21:38;4.60;99.90
8820;DHT22;4446;50.876;4.736;2024-01-06T12:24:27;4.80;99.90
8820;DHT22;4446;50.876;4.736;2024-01-06T12:26:55;4.70;99.90
8820;DHT22;4446;50.876;4.736;2024-01-06T12:29:22;4.80;99.90
8820;DHT22;4446;50.876;4.736;2024-01-06T12:31:50;4.70;99.90
8820;DHT22;4446;50.876;4.736;2024-01-06T12:34:17;4.70;99.90
8820;DHT22;4446;50.876;4.736;2024-01-06T12:36:45;4.60;99.90
8820;DHT22;4446;50.876;4.736;2024-01-06T12:39:13;4.60;99.90
8820;DHT22;4446;50.876;4.736;2024-01-06T12:41:42;4.60;99.90
8820;DHT22;4446;50.876;4.736;2024-01-06T12:44:10;4.60;99.90
8820;DHT22;4446;50.876;4.736;2024-01-06T12:46:38;4.60;99.90
8820;DHT22;4446;50.876;4.736;2024-01-06T12:49:05;4.70;99.90
8820;DHT22;4446;50.876;4.736;2024-01-06T12:51:32;4.60;99.90
8820;DHT22;4446;50.876;4.736;2024-01-06T12:54:01;4.60;99.90
8820;DHT22;4446;50.876;4.736;2024-01-06T12:56:29;4.60;99.90
8820;DHT22;4446;50.876;4.736;2024-01-06T12:58:56;4.60;99.90
8820;DHT22;4446;50.876;4.736;2024-01-06T13:01:23;4.70;99.90
8820;DHT22;4446;50.876;4.736;2024-01-06T13:03:50;4.70;99.90
8820;DHT22;4446;50.876;4.736;2024-01-06T13:06:19;4.80;99.90
8820;DHT22;4446;50.876;4.736;2024-01-06T13:08:46;4.80;99.90
8820;DHT22;4446;50.876;4.736;2024-01-06T13:11:16;4.60;99.90
8820;DHT22;4446;50.876;4.736;2024-01-06T13:13:43;4.60;99.90
8820;DHT22;4446;50.876;4.736;2024-01-06T13:16:10;4.60;99.90
8820;DHT22;4446;50.876;4.736;2024-01-06T13:18:37;4.60;99.90
8820;DHT22;4446;50.876;4.736;2024-01-06T13:21:04;4.50;99.90
8820;DHT22;4446;50.876;4.736;2024-01-06T13:23:31;4.60;99.90
8820;DHT22;4446;50.876;4.736;2024-01-06T13:25:58;4.70;99.90
8820;DHT22;4446;50.876;4.736;2024-01-06T13:28:27;4.60;99.90
8820;DHT22;4446;50.876;4.736;2024-01-06T13:30:54;4.50;99.90
8820;DHT22;4446;50.876;4.736;2024-01-06T13:33:21;4.60;99.90
8820;DHT22;4446;50.876;4.736;2024-01-06T13:35:48;4.50;99.90
8820;DHT22;4446;50.876;4.736;2024-01-06T13:38:16;4.50;99.90
8820;DHT22;4446;50.876;4.736;2024-01-06T13:40:43;4.50;99.90
8820;DHT22;4446;50.876;4.736;2024-01-06T13:43:10;4.60;99.90
8820;DHT22;4446;50.876;4.736;2024-01-06T13:45:43;4.60;99.90
8820;DHT22;4446;50.876;4.736;2024-01-06T13:48:11;4.50;99.90
8820;DHT22;4446;50.876;4.736;2024-01-06T13:50:38;4.50;99.90
8820;DHT22;4446;50.876;4.736;2024-01-06T13:53:05;4.40;99.90
8820;DHT22;4446;50.876;4.736;2024-01-06T13:55:33;4.50;99.90
8820;DHT22;4446;50.876;4.736;2024-01-06T13:58:00;4.50;99.90
8820;DHT22;4446;50.876;4.736;2024-01-06T14:00:27;4.50;99.90
8820;DHT22;4446;50.876;4.736;2024-01-06T14:02:55;4.50;99.90
8820;DHT22;4446;50.876;4.736;2024-01-06T14:05:23;4.40;99.90
8820;DHT22;4446;50.876;4.736;2024-01-06T14:07:51;4.40;99.90
8820;DHT22;4446;50.876;4.736;2024-01-06T14:10:18;4.30;99.90
8820;DHT22;4446;50.876;4.736;2024-01-06T14:12:45;4.30;99.90
8820;DHT22;4446;50.876;4.736;2024-01-06T14:15:12;4.40;99.90
8820;DHT22;4446;50.876;4.736;2024-01-06T14:17:39;4.40;99.90
8820;DHT22;4446;50.876;4.736;2024-01-06T14:20:08;4.40;99.90
8820;DHT22;4446;50.876;4.736;2024-01-06T14:22:38;4.40;99.90
8820;DHT22;4446;50.876;4.736;2024-01-06T14:25:06;4.40;99.90
8820;DHT22;4446;50.876;4.736;2024-01-06T14:27:33;4.40;99.90
8820;DHT22;4446;50.876;4.736;2024-01-06T14:30:01;4.40;99.90
8820;DHT22;4446;50.876;4.736;2024-01-06T14:32:28;4.50;99.90
8820;DHT22;4446;50.876;4.736;2024-01-06T14:34:55;4.50;99.90
8820;DHT22;4446;50.876;4.736;2024-01-06T14:37:24;4.50;99.90
8820;DHT22;4446;50.876;4.736;2024-01-06T14:39:51;4.50;99.90
8820;DHT22;4446;50.876;4.736;2024-01-06T14:42:19;4.50;99.90
8820;DHT22;4446;50.876;4.736;2024-01-06T14:44:46;4.50;99.90
8820;DHT22;4446;50.876;4.736;2024-01-06T14:47:13;4.50;99.90
8820;DHT22;4446;50.876;4.736;2024-01-06T14:49:40;4.50;99.90
8820;DHT22;4446;50.876;4.736;2024-01-06T14:52:07;4.40;99.90
8820;DHT22;4446;50.876;4.736;2024-01-06T14:54:36;4.40;99.90
8820;DHT22;4446;50.876;4.736;2024-01-06T14:57:03;4.40;99.90
8820;DHT22;4446;50.876;4.736;2024-01-06T14:59:30;4.40;99.90
8820;DHT22;4446;50.876;4.736;2024-01-06T15:01:58;4.40;99.90
8820;DHT22;4446;50.876;4.736;2024-01-06T15:04:25;4.40;99.90
8820;DHT22;4446;50.876;4.736;2024-01-06T15:06:52;4.40;99.90
8820;DHT22;4446;50.876;4.736;2024-01-06T15:09:19;4.50;99.90
8820;DHT22;4446;50.876;4.736;2024-01-06T15:11:47;4.40;99.90
8820;DHT22;4446;50.876;4.736;2024-01-06T15:14:14;4.50;99.90
8820;DHT22;4446;50.876;4.736;2024-01-06T15:16:41;4.40;99.90
8820;DHT22;4446;50.876;4.736;2024-01-06T15:19:08;4.30;99.90
8820;DHT22;4446;50.876;4.736;2024-01-06T15:21:37;4.30;99.90
8820;DHT22;4446;50.876;4.736;2024-01-06T15:24:04;4.30;99.90
8820;DHT22;4446;50.876;4.736;2024-01-06T15:26:32;4.30;99.90
8820;DHT22;4446;50.876;4.736;2024-01-06T15:29:00;4.40;99.90
8820;DHT22;4446;50.876;4.736;2024-01-06T15:31:28;4.40;99.90
8820;DHT22;4446;50.876;4.736;2024-01-06T15:33:55;4.40;99.90
8820;DHT22;4446;50.876;4.736;2024-01-06T15:36:22;4.30;99.90
8820;DHT22;4446;50.876;4.736;2024-01-06T15:38:49;4.30;99.90
8820;DHT22;4446;50.876;4.736;2024-01-06T15:41:16;4.30;99.90
8820;DHT22;4446;50.876;4.736;2024-01-06T15:43:43;4.30;99.90
8820;DHT22;4446;50.876;4.736;2024-01-06T15:46:11;4.20;99.90
8820;DHT22;4446;50.876;4.736;2024-01-06T15:48:41;4.30;99.90
8820;DHT22;4446;50.876;4.736;2024-01-06T15:51:08;4.30;99.90
8820;DHT22;4446;50.876;4.736;2024-01-06T15:53:35;4.40;99.90
8820;DHT22;4446;50.876;4.736;2024-01-06T15:56:03;4.40;99.90
8820;DHT22;4446;50.876;4.736;2024-01-06T15:58:30;4.40;99.90
8820;DHT22;4446;50.876;4.736;2024-01-06T16:00:57;4.40;99.90
8820;DHT22;4446;50.876;4.736;2024-01-06T16:03:26;4.40;99.90
8820;DHT22;4446;50.876;4.736;2024-01-06T16:05:54;4.40;99.90
8820;DHT22;4446;50.876;4.736;2024-01-06T16:08:21;4.50;99.90
8820;DHT22;4446;50.876;4.736;2024-01-06T16:10:48;4.50;99.90
8820;DHT22;4446;50.876;4.736;2024-01-06T16:13:15;4.50;99.90
8820;DHT22;4446;50.876;4.736;2024-01-06T16:15:46;4.50;99.90
8820;DHT22;4446;50.876;4.736;2024-01-06T16:18:14;4.50;99.90
8820;DHT22;4446;50.876;4.736;2024-01-06T16:20:44;4.50;99.90